Date,TemperatureHighF,TemperatureAvgF,TemperatureLowF,DewpointHighF,DewpointAvgF,DewpointLowF,HumidityHigh,HumidityAvg,HumidityLow,PressureMaxIn,PressureMinIn,WindSpeedMaxMPH,WindSpeedAvgMPH,GustSpeedMaxMPH,PrecipitationSumIn
2013-1-1,31.8,26.9,17.4,31.6,22.8,14.5,99,85,61,29.18,29.06,8,2,14,0.00
2013-1-2,28.2,19.4,8.4,15.4,9.8,6.1,93,69,46,29.27,29.15,3,0,4,0.00
2013-1-3,27.1,27.1,27.1,9.1,9.1,9.1,46,46,46,29.23,29.23,0,0,2,0.00
2013-1-4,27.1,27.1,27.1,9.1,9.1,9.1,46,46,46,29.23,29.23,0,0,2,0.00
2013-1-5,36.3,29.3,27.1,25.4,14.2,9.1,75,54,46,29.23,29.17,10,1,12,0.00
2013-1-6,36.9,30.9,23.9,32.5,25.2,18.2,85,79,74,29.36,29.04,9,3,13,0.00
2013-1-7,38.7,27.7,18.0,26.4,21.7,15.5,97,79,61,29.49,29.27,13,4,15,0.01
2013-1-8,49.3,23.7,20.1,21.8,19.6,-2.8,91,84,77,29.28,28.35,18,4,23,0.76
2013-1-11,61.0,54.1,48.4,56.4,50.3,31.6,99,87,70,29.18,28.92,19,6,24,0.50
2013-1-12,65.1,56.3,47.5,62.9,55.0,45.8,99,96,82,29.07,28.83,22,7,33,0.04
2013-1-13,63.5,50.1,31.5,63.0,49.8,31.2,99,99,95,29.17,28.74,23,8,32,0.61
2013-1-14,31.3,23.7,21.4,31.0,21.5,19.2,99,91,84,29.47,29.17,4,0,8,0.01
2013-1-15,31.8,27.2,21.7,23.5,21.7,18.7,91,80,71,29.41,29.26,6,2,11,0.00
2013-1-16,35.1,30.6,30.4,27.0,23.2,23.1,74,74,72,29.28,29.02,3,3,7,0.00
2013-1-17,41.0,33.4,23.0,30.3,24.7,13.7,84,70,61,29.42,29.15,13,5,23,0.02
2013-1-18,37.0,28.4,17.2,23.8,17.4,12.0,81,64,46,29.53,29.21,22,8,28,0.00
2013-1-19,53.1,42.6,34.3,30.6,25.9,21.9,64,52,39,29.21,28.91,21,8,33,0.00
2013-1-20,43.2,29.7,21.6,33.4,14.5,6.1,70,53,36,29.26,28.91,8,3,15,0.00
2013-1-21,22.3,21.3,19.6,12.2,10.8,8.9,67,63,60,29.20,29.11,4,1,11,0.00
2013-1-22,14.0,12.3,5.5,-1.8,-2.6,-4.9,66,50,46,29.38,29.32,4,2,8,0.00
2013-1-23,20.7,14.0,7.7,12.7,3.0,-3.4,85,62,38,29.35,29.12,8,1,14,0.00
2013-1-24,19.4,15.6,7.2,13.8,4.9,0.4,84,62,51,29.59,29.14,14,4,21,0.00
2013-1-25,16.9,16.9,16.7,6.5,6.5,6.3,63,63,63,29.47,29.46,5,4,6,0.00
2013-1-29,61.9,59.5,54.1,57.6,56.2,53.9,99,89,83,28.98,28.61,24,15,34,0.03
2013-1-30,64.4,51.2,30.4,57.7,47.0,25.0,99,86,67,28.61,28.32,39,12,51,2.16
2013-1-31,31.3,23.7,12.6,24.7,15.3,3.7,84,70,53,29.05,28.56,9,3,17,0.17
2013-2-1,18.5,10.7,3.6,6.8,-0.7,-4.8,74,60,41,29.40,29.05,6,2,17,9.50
2013-2-2,31.6,20.9,10.2,24.3,14.8,2.1,86,77,66,29.33,29.00,16,5,20,0.02
2013-2-3,24.6,19.7,11.1,19.5,11.7,6.5,83,72,48,29.13,28.94,7,1,14,0.00
2013-2-4,12.0,11.5,10.9,7.9,7.2,6.5,83,82,82,29.13,29.12,1,0,2,0.00
2013-2-7,-200.0,0.0,200.0,-99.9,-99.9,-99.9,0,0,100,0.00,40.00,0,0,0,0.00
2013-2-8,34.0,31.4,26.6,32.3,23.5,-99.9,95,75,63,29.36,28.92,19,8,24,0.02
2013-2-9,41.5,27.5,8.4,20.8,14.1,-3.6,78,59,29,29.45,29.30,8,3,98,0.00
2013-2-10,48.7,33.6,29.5,44.7,23.8,19.2,97,67,50,29.30,28.82,22,7,30,0.06
2013-2-11,49.5,42.6,33.4,49.2,31.6,21.6,99,67,45,29.06,28.77,18,5,23,0.02
2013-2-12,41.9,31.1,29.1,26.3,21.8,20.2,82,69,43,29.15,28.97,7,2,9,0.00
2013-2-13,42.8,30.5,27.3,26.8,23.9,21.2,90,77,44,28.98,28.81,9,3,12,0.00
2013-2-14,53.4,37.3,30.6,36.2,30.5,24.9,99,78,47,29.01,28.82,20,6,26,0.00
2013-2-15,38.1,30.4,21.9,29.8,24.7,14.6,92,79,60,29.18,29.01,27,2,27,0.05
2013-2-16,29.3,20.9,15.6,20.9,11.1,3.2,85,66,49,29.17,29.06,7,2,13,0.00
2013-2-17,33.6,19.7,9.9,11.0,4.8,-1.0,73,54,25,29.26,29.13,8,1,11,0.00
2013-2-18,55.2,37.4,19.0,36.8,19.3,6.1,77,49,34,29.24,28.75,34,12,49,0.24
2013-2-19,44.1,29.3,20.7,39.3,20.9,9.7,94,71,56,29.12,28.65,97,5,97,10.32
2013-2-20,25.5,19.5,13.8,11.2,7.5,3.0,70,59,43,29.33,29.12,7,1,12,0.00
2013-2-21,27.0,22.9,19.2,17.6,12.6,9.8,71,64,56,29.38,29.12,12,4,53,24.20
2013-2-22,37.0,29.5,25.3,36.8,26.0,17.6,99,87,71,29.12,28.95,13,1,19,0.04
2013-2-23,32.7,30.9,27.7,31.8,24.7,-2.6,97,78,21,29.02,28.97,7,2,10,12.30
2013-2-24,27.5,26.2,26.1,21.0,19.3,19.2,79,75,74,29.01,28.97,4,4,8,0.00
2013-2-25,42.1,29.2,26.1,21.3,19.5,19.2,75,68,41,29.08,28.98,7,4,11,0.00
2013-2-26,45.1,36.9,33.1,40.9,30.5,18.9,99,79,54,28.98,28.53,11,5,20,0.51
2013-2-27,41.2,36.1,31.1,40.9,33.6,28.6,99,90,80,28.73,28.53,9,2,14,0.04
2013-2-28,36.7,33.5,30.4,33.2,30.4,28.7,98,89,81,28.85,28.69,6,2,12,0.07
2013-3-1,35.2,32.4,30.7,32.1,29.4,24.5,99,89,72,29.04,28.85,7,2,10,0.02
2013-3-2,24.8,24.5,24.1,18.9,17.7,15.9,79,75,69,29.10,29.08,10,7,13,0.00
2013-3-3,30.7,27.5,22.6,13.3,12.2,10.1,66,52,43,29.11,29.06,8,2,11,0.00
2013-3-4,41.9,30.4,17.4,23.5,14.0,9.5,78,53,26,29.18,29.05,10,2,13,0.00
2013-3-6,33.8,30.8,26.8,25.7,24.5,23.6,89,78,69,29.23,28.94,13,4,17,0.00
2013-3-7,42.1,36.5,30.0,30.2,26.2,18.4,89,67,53,29.41,29.32,8,3,11,0.04
2013-3-8,42.4,33.8,28.4,19.9,18.5,16.1,65,54,34,29.47,29.40,6,2,8,0.00
2013-3-9,52.9,40.3,27.7,37.1,26.3,19.2,84,59,37,29.42,29.06,12,5,92,11.05
2013-3-10,66.6,53.4,45.7,34.6,29.8,7.4,54,42,13,29.06,28.93,21,12,30,24.94
2013-3-12,41.3,24.0,32.0,31.5,-18.4,-99.9,88,33,38,29.97,29.05,1,1,3,0.00
2013-3-13,32.2,27.1,25.0,29.3,22.5,19.7,89,82,80,29.06,29.05,2,2,5,0.00
2013-3-14,132.4,37.1,20.3,93.6,18.3,7.8,80,51,20,29.36,29.06,4,1,10,0.28
2013-3-15,48.7,39.1,29.1,33.3,28.8,16.2,94,68,55,29.19,28.93,4,2,8,0.08
2013-3-16,50.7,42.8,32.5,45.4,37.0,29.7,99,81,55,29.08,28.66,13,4,19,0.06
2013-3-17,35.8,33.0,29.1,29.7,23.7,19.0,89,69,58,29.21,29.07,12,6,16,0.00
2013-3-18,48.9,38.2,31.3,47.7,35.9,23.3,99,92,60,29.15,28.63,14,4,20,0.47
2013-3-19,43.2,34.9,25.5,35.4,19.8,10.0,93,58,27,29.11,28.84,12,3,22,0.14
2013-3-20,37.8,29.3,21.4,16.4,10.2,4.0,66,45,30,29.10,28.99,6,2,14,0.00
2013-3-21,32.7,24.3,16.7,14.2,9.4,5.3,74,53,39,29.05,28.97,9,2,14,0.00
2013-3-22,48.0,31.7,18.7,15.9,10.5,-5.9,71,44,15,29.09,29.02,10,1,14,5.98
2013-3-23,51.3,36.9,26.1,19.8,14.0,8.7,58,41,19,29.11,28.97,11,2,17,0.00
2013-3-24,33.8,31.0,25.5,26.0,20.0,15.8,84,63,55,29.09,28.73,10,5,14,0.00
2013-3-25,34.0,31.8,30.6,32.2,30.8,29.6,99,96,91,28.96,28.58,15,8,21,1.16
2013-3-26,45.5,34.7,29.7,30.8,27.0,22.3,99,75,48,29.25,28.96,8,3,14,0.00
2013-3-27,47.7,37.7,27.0,34.4,26.4,16.9,80,65,36,29.32,29.23,34,11,70,0.00
2013-3-28,50.5,40.5,27.1,34.4,22.8,17.5,71,51,28,29.38,29.29,34,8,70,0.00
2013-3-29,57.4,38.8,31.6,26.6,21.8,19.0,63,52,24,29.35,29.25,10,1,14,0.00
2013-3-30,59.4,45.8,30.2,30.6,22.4,13.4,70,43,18,29.29,28.99,14,3,17,0.00
2013-3-31,64.2,50.4,43.2,40.1,32.1,23.3,71,51,27,28.99,28.79,7,2,13,0.00
2013-4-1,49.5,49.5,49.5,33.0,33.0,33.0,53,53,53,28.81,28.81,0,0,2,0.00
2013-4-2,49.5,28.8,25.3,33.0,13.1,9.8,53,51,51,29.19,28.81,0,0,2,0.02
2013-4-3,52.7,28.3,25.3,27.2,-13.5,-99.9,51,32,37,29.19,29.19,11,-265,14,0.00
2013-4-4,-200.0,0.0,200.0,-99.9,-99.9,-99.9,0,0,100,0.00,40.00,0,-999,0,0.00
2013-4-5,55.8,13.1,42.4,14.9,-70.2,-99.9,27,6,15,29.20,29.10,11,-728,14,0.00
2013-4-6,63.1,48.9,36.7,24.7,14.3,7.0,40,27,11,29.26,28.93,21,8,24,0.00
2013-4-7,75.4,62.7,59.4,23.5,21.1,12.4,25,21,10,29.00,28.86,11,8,14,0.00
2013-4-8,71.6,71.6,71.6,14.3,14.3,14.3,11,11,11,28.99,28.99,2,2,6,0.00
2013-4-9,82.8,74.5,71.6,47.4,24.9,14.3,30,17,11,28.99,28.95,26,4,40,0.09
2013-4-10,79.3,77.7,58.1,59.4,45.4,44.3,99,34,29,28.98,28.90,11,6,14,0.11
2013-4-11,64.2,59.6,54.3,63.3,58.3,53.6,99,96,81,28.90,28.61,14,3,18,0.20
2013-4-12,58.1,45.0,13.5,57.8,38.3,13.2,99,79,49,28.89,28.56,8,3,15,206.00
2013-4-13,41.3,41.3,41.3,31.5,31.5,31.5,38,38,38,29.97,29.97,1,1,0,0.00
2013-4-14,65.5,46.3,41.3,36.4,32.5,30.7,62,42,34,29.97,28.98,11,4,14,0.00
2013-4-15,59.7,59.2,41.3,44.9,44.7,31.5,72,59,38,29.97,28.98,11,8,14,0.00
2013-4-16,63.3,58.3,53.1,55.7,47.8,44.9,99,70,58,29.25,29.01,17,7,23,0.66
2013-4-17,75.6,60.2,50.0,63.5,56.2,49.7,99,88,64,29.29,29.02,11,5,15,0.28
2013-4-18,80.8,71.2,63.9,62.0,56.7,49.9,92,64,38,29.03,28.74,34,16,46,1.86
2013-4-19,77.7,48.7,15.4,58.5,35.6,-11.9,91,63,26,28.99,28.50,27,6,34,0.42
2013-4-20,43.3,39.1,33.1,31.8,25.5,23.8,91,59,51,29.45,28.99,5,2,12,0.39
2013-4-21,56.3,44.3,31.6,23.8,19.0,6.0,55,39,13,29.58,29.43,11,3,16,0.06
2013-4-22,43.5,43.5,43.5,19.6,19.6,19.6,38,38,38,29.44,29.44,0,0,1,0.00
2013-4-23,43.5,43.5,43.5,19.6,19.6,19.6,38,38,38,29.44,29.44,0,0,1,0.00
2013-4-24,45.9,42.7,35.4,34.1,23.2,19.6,89,48,38,29.44,29.10,6,0,11,0.61
2013-4-25,58.8,47.7,31.8,35.9,29.7,22.9,99,58,25,29.29,29.25,11,3,18,0.00
2013-4-26,58.6,58.6,58.6,22.9,22.9,22.9,25,25,25,29.29,29.29,2,2,6,0.00
2013-4-27,58.6,58.6,58.6,22.9,22.9,22.9,25,25,25,29.29,29.29,2,2,6,0.00
2013-4-28,58.6,49.6,44.2,29.5,27.0,22.9,56,44,25,29.29,29.01,4,3,8,0.00
2013-5-11,60.8,51.8,42.1,48.9,43.7,35.9,99,75,56,29.05,28.91,17,3,24,2.56
2013-5-12,56.7,46.2,-13.2,36.9,27.6,-32.1,83,52,26,29.17,29.04,8,2,19,0.39
2013-5-13,62.1,50.9,39.4,31.0,21.7,4.1,65,36,10,29.22,29.14,13,2,17,0.52
2013-5-14,82.8,62.4,45.3,51.3,37.2,21.4,61,40,23,29.19,28.86,27,8,36,28.81
2013-5-15,88.9,75.8,65.7,52.5,48.0,36.3,62,41,16,28.91,28.85,8,4,18,1.53
2013-5-20,86.9,79.3,41.3,71.2,63.0,31.5,99,59,38,29.97,28.93,21,9,27,0.00
2013-5-21,86.4,76.5,65.8,65.3,57.9,50.5,82,55,31,29.00,28.84,22,8,30,0.00
2013-5-22,80.8,71.1,65.5,65.5,59.4,53.3,96,69,41,28.90,28.78,27,9,35,0.00
2013-5-23,72.5,61.7,49.1,65.2,54.7,41.5,99,79,48,29.17,28.85,21,5,27,0.00
2013-5-24,65.7,54.3,45.5,43.8,32.8,15.8,88,50,16,29.37,29.16,19,7,24,0.00
2013-5-25,65.7,50.8,43.3,37.4,32.4,23.9,76,52,21,29.44,29.35,8,2,11,0.00
2013-5-30,85.3,84.7,73.0,57.5,57.1,50.4,45,39,38,29.06,29.01,16,12,21,0.00
2013-5-31,84.9,77.5,68.4,70.1,62.3,57.2,99,64,39,29.09,28.99,35,10,46,0.00
2013-6-1,79.5,72.4,65.7,69.3,65.7,60.9,99,81,54,29.02,28.83,25,9,35,0.00
2013-6-2,80.6,70.3,61.0,64.4,56.6,50.8,85,64,37,29.02,28.85,13,3,18,0.00
2013-6-3,71.4,59.1,49.5,51.9,45.2,39.4,87,62,33,29.13,29.01,13,4,19,0.00
2013-6-4,75.7,64.6,50.4,45.1,35.8,24.8,78,40,16,29.22,29.12,10,3,14,0.39
2013-6-5,84.9,69.0,55.2,74.9,41.6,35.3,87,39,19,29.17,28.94,53,2,53,0.11
2013-6-6,73.4,63.7,59.0,65.0,55.8,44.6,97,77,43,28.96,28.87,100,6,100,0.00
2013-6-7,76.6,63.8,54.7,58.4,52.4,46.0,99,71,35,29.05,28.87,11,5,14,0.00
2013-6-8,77.0,66.1,53.8,54.5,50.4,44.5,96,60,35,29.11,28.96,11,2,14,0.00
2013-6-9,84.4,72.8,63.1,62.2,56.1,46.2,85,59,27,29.12,28.96,14,6,21,0.00
2013-6-10,81.7,70.3,65.3,67.2,62.2,54.5,99,78,42,28.97,28.84,13,4,21,0.00
2013-6-11,90.5,75.7,63.5,64.2,59.7,46.6,98,63,24,29.02,28.89,11,2,15,0.00
2013-6-12,94.1,81.5,68.7,69.4,65.4,61.1,89,61,36,28.98,28.77,15,3,27,0.00
2013-6-13,81.3,70.5,63.0,68.6,58.7,45.5,99,70,34,29.00,28.67,20,7,33,0.00
2013-6-14,79.9,68.4,56.3,58.4,51.8,45.0,91,58,31,29.12,28.98,12,4,15,0.00
2013-6-15,86.2,72.0,59.0,60.0,54.0,48.3,83,55,30,29.18,29.01,12,3,16,0.00
2013-6-16,82.6,72.5,66.4,66.1,61.9,57.4,90,70,51,29.06,28.99,8,2,15,0.00
2013-6-17,94.8,77.0,66.9,71.5,62.1,44.8,99,67,19,29.05,28.94,8,1,12,0.00
2013-6-18,86.2,72.9,67.8,64.9,63.2,61.0,87,73,46,28.98,28.93,8,1,12,0.00
2013-7-5,71.8,57.8,41.3,67.4,50.9,31.5,86,64,38,29.97,29.28,1,0,0,0.00
2013-7-6,71.8,71.8,71.8,67.4,67.4,67.4,86,86,86,29.31,29.29,0,0,0,0.00
2013-11-12,54.9,38.3,36.0,29.1,19.0,16.7,50,45,37,29.72,29.18,6,4,10,0.08
2013-11-13,35.1,33.6,29.7,13.3,9.8,8.2,50,37,32,29.60,29.53,3,2,4,0.00
2013-11-14,54.3,40.0,27.5,17.4,11.4,3.3,57,35,15,29.53,29.30,10,3,16,0.00
2013-11-15,41.2,41.2,41.2,8.9,8.9,8.9,26,26,26,29.30,29.30,2,2,4,0.00
2013-11-17,63.7,58.5,41.3,59.7,47.6,31.5,89,68,38,29.97,28.65,20,9,30,0.80
2013-11-18,49.1,47.7,47.5,36.7,36.3,36.3,65,65,62,28.96,28.92,6,3,10,0.00